createdAt,value
2022-08-17T00:00:43.645Z,190.27445
2022-08-17T00:05:51.727Z,185.77095
2022-08-17T00:10:53.395Z,181.9192
2022-08-17T00:15:54.997Z,114.8996
2022-08-17T00:20:56.591Z,170.2456
2022-08-17T00:25:58.160Z,161.47555
2022-08-17T00:30:59.771Z,86.4562
2022-08-17T00:36:01.403Z,152.76475
2022-08-17T00:41:03.011Z,149.0908
2022-08-17T00:46:04.758Z,140.85405
2022-08-17T00:51:06.340Z,130.54325
2022-08-17T00:56:07.981Z,109.62535
2022-08-17T01:01:09.623Z,80.7078
2022-08-17T01:06:11.257Z,58.90115
2022-08-17T01:11:13.255Z,50.07185
2022-08-17T01:16:14.839Z,44.561
2022-08-17T01:21:16.419Z,43.07965
2022-08-17T01:26:18.013Z,37.6873
2022-08-17T01:31:19.615Z,21.1909
2022-08-17T01:36:21.249Z,26.1882
2022-08-17T01:41:22.858Z,27.95855
2022-08-17T01:46:24.493Z,21.1719
2022-08-17T01:51:26.126Z,23.91965
2022-08-17T01:56:27.870Z,22.7578
2022-08-17T02:01:29.521Z,18.4793
2022-08-17T02:06:31.256Z,18.29485
2022-08-17T02:11:33.478Z,16.7641
2022-08-17T02:16:36.773Z,18.53445
2022-08-17T02:21:38.885Z,18.53445
2022-08-17T02:26:40.483Z,11.93225
2022-08-17T02:31:42.108Z,8.63115
2022-08-17T02:36:43.772Z,7.4693
2022-08-17T02:41:45.402Z,8.4467
2022-08-17T02:46:47.005Z,4.96115
2022-08-17T02:51:48.627Z,5.7541
2022-08-17T02:56:50.237Z,3.24595
2022-08-17T03:01:51.868Z,1.54065
2022-08-17T03:06:53.490Z,3.85445
2022-08-17T03:11:55.889Z,0.88885
2022-08-17T03:16:57.723Z,0.47405
2022-08-17T03:21:59.309Z,0
2022-08-17T03:27:00.947Z,0
2022-08-17T03:32:02.627Z,0
2022-08-17T03:37:04.205Z,0
2022-08-17T03:42:06.009Z,0
2022-08-17T03:47:07.707Z,0
2022-08-17T03:52:09.297Z,0
2022-08-17T03:57:10.914Z,0
2022-08-17T04:02:12.489Z,0
2022-08-17T04:07:14.109Z,0
2022-08-17T04:12:15.701Z,0
2022-08-17T04:17:17.320Z,0
2022-08-17T04:22:33.005Z,0
2022-08-17T04:27:35.864Z,0
2022-08-17T04:32:59.287Z,0
2022-08-17T04:38:11.726Z,0
2022-08-17T04:43:13.799Z,0
2022-08-17T04:48:15.660Z,0
2022-08-17T04:53:17.295Z,0
2022-08-17T04:58:18.959Z,0
2022-08-17T05:03:21.113Z,0
2022-08-17T05:08:23.025Z,0
2022-08-17T05:13:24.660Z,0
2022-08-17T05:18:27.331Z,0
2022-08-17T05:23:36.542Z,0
2022-08-17T05:28:44.161Z,0
2022-08-17T05:33:47.660Z,0
2022-08-17T05:38:49.571Z,0
2022-08-17T05:43:56.099Z,0
2022-08-17T05:48:58.602Z,0
2022-08-17T05:54:00.215Z,0
2022-08-17T05:59:01.864Z,0
2022-08-17T06:04:03.490Z,0
2022-08-17T06:09:05.077Z,0
2022-08-17T06:14:06.642Z,0
2022-08-17T06:19:08.433Z,0
2022-08-17T06:24:10.030Z,0
2022-08-17T06:29:18.595Z,0
2022-08-17T06:34:20.677Z,0
2022-08-17T06:39:22.266Z,0
2022-08-17T06:44:43.651Z,0
2022-08-17T06:49:55.396Z,0
2022-08-17T06:54:57.497Z,0
2022-08-17T06:59:59.105Z,0
2022-08-17T07:05:00.844Z,0
2022-08-17T07:10:02.475Z,0
2022-08-17T07:15:04.129Z,0
2022-08-17T07:20:05.818Z,0
2022-08-17T07:25:07.433Z,0
2022-08-17T07:30:10.880Z,0
2022-08-17T07:35:13.015Z,0
2022-08-17T07:40:17.439Z,0
2022-08-17T07:45:19.137Z,0
2022-08-17T07:50:25.742Z,0
2022-08-17T07:55:27.746Z,0
2022-08-17T08:00:32.363Z,0
2022-08-17T08:05:50.390Z,0
2022-08-17T08:10:52.773Z,0
2022-08-17T08:15:54.848Z,0
2022-08-17T08:20:56.524Z,0
2022-08-17T08:25:58.133Z,0
2022-08-17T08:30:59.773Z,0
2022-08-17T08:36:01.378Z,0
2022-08-17T08:41:03.037Z,0
2022-08-17T08:46:04.954Z,0
2022-08-17T08:51:06.586Z,0
2022-08-17T08:56:10.220Z,0
2022-08-17T09:01:17.296Z,0
2022-08-17T09:06:33.257Z,0
2022-08-17T09:12:01.287Z,0
2022-08-17T09:17:05.095Z,0
2022-08-17T09:22:06.748Z,0
2022-08-17T09:27:08.370Z,0
2022-08-17T09:32:10.004Z,0
2022-08-17T09:37:11.650Z,0
2022-08-17T09:42:13.391Z,0
2022-08-17T09:47:14.977Z,0
2022-08-17T09:52:16.579Z,0
2022-08-17T09:57:29.687Z,0
2022-08-17T10:02:31.823Z,0
2022-08-17T10:07:33.454Z,0
2022-08-17T10:12:35.151Z,0
2022-08-17T10:17:36.929Z,0
2022-08-17T10:22:38.651Z,0
2022-08-17T10:27:41.598Z,0
2022-08-17T10:32:43.249Z,0
2022-08-17T10:37:44.901Z,0
2022-08-17T10:42:46.659Z,0
2022-08-17T10:47:55.543Z,0
2022-08-17T10:52:57.990Z,0
2022-08-17T10:57:59.609Z,0
2022-08-17T11:03:01.222Z,0
2022-08-17T11:08:02.783Z,0
2022-08-17T11:13:06.276Z,0
2022-08-17T11:18:07.906Z,0
2022-08-17T11:23:09.700Z,0
2022-08-17T11:28:11.308Z,0
2022-08-17T11:33:12.903Z,0
2022-08-17T11:38:16.086Z,0
2022-08-17T11:43:18.097Z,0
2022-08-17T11:48:27.711Z,0
2022-08-17T11:53:30.425Z,0
2022-08-17T11:58:32.023Z,0
2022-08-17T12:03:33.755Z,0
2022-08-17T12:08:35.573Z,0
2022-08-17T12:13:39.905Z,0
2022-08-17T12:18:41.855Z,0
2022-08-17T12:23:44.157Z,0
2022-08-17T12:28:45.995Z,0
2022-08-17T12:33:47.586Z,0.47405
2022-08-17T12:38:49.234Z,0.88885
2022-08-17T12:43:50.948Z,1.7152
2022-08-17T12:48:54.952Z,2.01475
2022-08-17T12:54:01.636Z,2.4888
2022-08-17T12:59:03.232Z,7.7089
2022-08-17T13:04:04.849Z,4.7767
2022-08-17T13:09:06.479Z,7.1004
2022-08-17T13:14:08.132Z,8.4467
2022-08-17T13:19:09.732Z,12.90965
2022-08-17T13:24:11.402Z,12.1167
2022-08-17T13:29:13.030Z,12.4856
2022-08-17T13:34:14.657Z,17.133
2022-08-17T13:39:17.054Z,16.5245
2022-08-17T13:44:18.655Z,30.1024
2022-08-17T13:49:20.254Z,36.32435
2022-08-17T13:54:21.863Z,52.50145
2022-08-17T13:59:52.663Z,77.80415
2022-08-17T14:04:55.855Z,83.49285
2022-08-17T14:09:57.651Z,54.2792
2022-08-17T14:15:00.925Z,71.2859
2022-08-17T14:20:02.607Z,79.2264
2022-08-17T14:25:04.195Z,112.351
2022-08-17T14:30:10.121Z,109.92145
2022-08-17T14:35:11.948Z,130.6021
2022-08-17T14:40:13.613Z,114.83975
2022-08-17T14:45:30.470Z,112.2918
2022-08-17T14:50:35.725Z,87.5224
2022-08-17T14:55:37.568Z,57.5976
2022-08-17T15:00:39.174Z,60.679
2022-08-17T15:05:40.986Z,89.12235
2022-08-17T15:10:42.645Z,74.13035
2022-08-17T15:15:44.261Z,105.2403
2022-08-17T15:20:45.833Z,181.9783
2022-08-17T15:25:47.668Z,223.8729
2022-08-17T15:30:49.257Z,258.2419
2022-08-17T15:35:50.857Z,288.7594
2022-08-17T15:40:52.695Z,276.8487
2022-08-17T15:46:00.143Z,245.0869
2022-08-17T15:51:02.366Z,201.76995
2022-08-17T15:56:03.988Z,194.59975
2022-08-17T16:01:18.275Z,208.28805
2022-08-17T16:06:22.692Z,258.18245
2022-08-17T16:11:24.284Z,296.8181
2022-08-17T16:16:25.890Z,320.6988
2022-08-17T16:21:27.545Z,326.74305
2022-08-17T16:26:29.129Z,311.45475
2022-08-17T16:31:30.725Z,285.97415
2022-08-17T16:36:32.315Z,284.72985
2022-08-17T16:41:34.010Z,275.01165
2022-08-17T16:46:35.612Z,274.3599
2022-08-17T16:51:37.184Z,269.2638
2022-08-17T16:56:38.794Z,280.75975
2022-08-17T17:01:40.474Z,272.6416
2022-08-17T17:06:42.082Z,268.0195
2022-08-17T17:11:43.695Z,273.29335
2022-08-17T17:16:45.282Z,288.22625
2022-08-17T17:21:46.871Z,287.5745
2022-08-17T17:26:48.548Z,269.7973
2022-08-17T17:31:50.151Z,254.27185
2022-08-17T17:36:51.962Z,244.02035
2022-08-17T17:41:53.567Z,233.11695
2022-08-17T17:46:55.133Z,223.0432
2022-08-17T17:52:11.004Z,206.03625
2022-08-17T17:57:15.028Z,195.07365
2022-08-17T18:02:16.678Z,209.29535
2022-08-17T18:07:18.381Z,240.76105
2022-08-17T18:12:19.977Z,251.3089
2022-08-17T18:17:21.705Z,266.1825
2022-08-17T18:22:23.500Z,283.95975
2022-08-17T18:27:25.371Z,273.8269
2022-08-17T18:32:26.969Z,269.7381
2022-08-17T18:37:28.564Z,252.07935
2022-08-17T18:42:30.340Z,232.88
2022-08-17T18:47:32.112Z,221.2655
2022-08-17T18:52:34.202Z,213.1473
2022-08-17T18:57:35.789Z,201.11805
2022-08-17T19:02:45.607Z,195.7256
2022-08-17T19:07:47.935Z,181.56315
2022-08-17T19:12:49.526Z,175.0448
2022-08-17T19:17:51.656Z,171.90415
2022-08-17T19:22:53.396Z,173.5634
2022-08-17T19:27:57.346Z,180.9113
2022-08-17T19:32:59.770Z,192.70345
2022-08-17T19:38:01.417Z,205.3253
2022-08-17T19:43:03.014Z,203.01425
2022-08-17T19:48:04.889Z,208.88065
2022-08-17T19:53:06.769Z,224.2875
2022-08-17T19:58:08.415Z,230.2725
2022-08-17T20:03:16.157Z,237.0278
2022-08-17T20:08:18.363Z,243.7238
2022-08-17T20:13:19.977Z,256.1086
2022-08-17T20:18:35.542Z,262.56755
2022-08-17T20:23:37.154Z,268.13765
2022-08-17T20:28:38.757Z,272.0485
2022-08-17T20:33:40.357Z,278.56665
2022-08-17T20:38:41.951Z,283.6626
2022-08-17T20:43:43.551Z,289.4105
2022-08-17T20:48:45.544Z,296.699
2022-08-17T20:53:47.549Z,294.2101
2022-08-17T20:58:49.193Z,300.2543
2022-08-17T21:03:51.907Z,297.94325
2022-08-17T21:08:53.989Z,298.06175
2022-08-17T21:13:55.622Z,297.0544
2022-08-17T21:18:57.218Z,296.75815
2022-08-17T21:23:58.847Z,295.63225
2022-08-17T21:29:17.835Z,293.55825
2022-08-17T21:34:33.491Z,293.08425
2022-08-17T21:39:35.344Z,290.4177
2022-08-17T21:44:37.002Z,290.77335
2022-08-17T21:49:38.619Z,290.0031
2022-08-17T21:54:40.634Z,288.58105
2022-08-17T21:59:42.486Z,287.63305
2022-08-17T22:04:44.040Z,284.4925
2022-08-17T22:09:45.620Z,280.4038
2022-08-17T22:14:52.628Z,276.90765
2022-08-17T22:19:55.458Z,272.5819
2022-08-17T22:24:57.611Z,268.4932
2022-08-17T22:29:59.380Z,264.4045
2022-08-17T22:35:00.982Z,260.96765
2022-08-17T22:40:02.637Z,256.46415
2022-08-17T22:45:04.316Z,251.1903
2022-08-17T22:50:05.935Z,248.5831
2022-08-17T22:55:09.217Z,244.31665
2022-08-17T23:00:11.247Z,240.22795
2022-08-17T23:05:14.292Z,234.48005
2022-08-17T23:10:15.934Z,226.8359
2022-08-17T23:15:17.695Z,222.3324
2022-08-17T23:20:19.350Z,217.41405
2022-08-17T23:25:20.965Z,213.85865
2022-08-17T23:30:22.560Z,211.01435
2022-08-17T23:35:39.737Z,206.33305
2022-08-17T23:40:42.705Z,201.53325
2022-08-17T23:45:44.291Z,195.60755
2022-08-17T23:50:45.939Z,191.34105
2022-08-17T23:55:48.224Z,188.0227
